Time;durP1;ratioP1;P1;durP2;ratioP2;P2;SDS_P1;SDS_P2;PMS_P1;PMS_P2;Temp;Humidity;BMP_temperature;BMP_pressure;BME280_temperature;BME280_humidity;BME280_pressure;Samples;Min_cycle;Max_cycle;Signal;HPM_P1;HPM_P2
2022/05/11 00:00:16;;;;;;;4.40;3.53;;;;;;;16.29;62.06;101762.06;2081303;28;20590;-68
2022/05/11 00:01:16;;;;;;;7.00;3.87;;;;;;;16.18;62.47;101758.81;2080970;28;20422;-68
2022/05/11 00:02:18;;;;;;;4.07;3.40;;;;;;;16.22;62.45;101759.50;2081686;28;20458;-68
2022/05/11 00:03:20;;;;;;;4.40;3.50;;;;;;;16.22;62.64;101764.28;2081569;28;20665;-68
2022/05/11 00:04:21;;;;;;;4.97;3.40;;;;;;;15.88;62.62;101724.94;2081533;28;20413;-68
2022/05/11 00:05:22;;;;;;;4.57;3.07;;;;;;;16.02;62.99;101752.47;2081001;28;20419;-68
2022/05/11 00:06:23;;;;;;;4.67;3.53;;;;;;;16.06;63.02;101761.56;2081592;28;20271;-68
2022/05/11 00:07:24;;;;;;;5.53;3.43;;;;;;;15.65;63.22;101698.03;2081781;28;20429;-68
2022/05/11 00:08:25;;;;;;;4.57;3.50;;;;;;;15.37;62.67;101661.69;2080923;28;20474;-68
2022/05/11 00:09:25;;;;;;;5.93;3.63;;;;;;;16.17;62.38;101757.25;2081024;28;20470;-68
2022/05/11 00:10:26;;;;;;;5.50;3.60;;;;;;;16.22;62.50;101767.09;2072354;28;20195;-68
2022/05/11 00:11:27;;;;;;;6.47;3.33;;;;;;;16.24;62.59;101759.06;2072578;28;20183;-68
2022/05/11 00:12:28;;;;;;;7.60;3.60;;;;;;;16.23;62.35;101758.25;2080958;28;20196;-68
2022/05/11 00:13:28;;;;;;;7.23;3.23;;;;;;;16.27;62.67;101763.75;2076642;28;20516;-68
2022/05/11 00:14:29;;;;;;;5.27;3.40;;;;;;;16.28;62.50;101757.72;2080563;28;20287;-68
2022/05/11 00:15:29;;;;;;;4.03;2.90;;;;;;;16.29;62.34;101759.28;2088600;28;20182;-68
2022/05/11 00:16:31;;;;;;;4.77;3.33;;;;;;;16.27;62.29;101758.16;2089707;28;20315;-68
2022/05/11 00:17:31;;;;;;;7.00;3.37;;;;;;;16.27;62.49;101756.16;2089885;28;20190;-68
2022/05/11 00:18:32;;;;;;;4.07;3.10;;;;;;;16.26;62.19;101751.00;2089557;28;20472;-68
2022/05/11 00:19:33;;;;;;;6.73;3.20;;;;;;;15.61;62.05;101644.25;2089593;28;20178;-68
2022/05/11 00:20:33;;;;;;;4.50;3.03;;;;;;;15.88;62.15;101691.41;2089363;28;20189;-68
2022/05/11 00:21:34;;;;;;;4.70;3.10;;;;;;;16.25;62.10;101744.59;2089835;28;20177;-68
2022/05/11 00:22:36;;;;;;;4.47;3.30;;;;;;;16.27;61.98;101738.56;2081074;28;20678;-68
2022/05/11 00:23:37;;;;;;;5.10;3.17;;;;;;;15.51;61.67;101636.16;2075773;28;20497;-68
2022/05/11 00:24:37;;;;;;;4.83;3.30;;;;;;;16.26;61.39;101746.19;2081169;28;20928;-68
2022/05/11 00:25:38;;;;;;;6.83;3.30;;;;;;;16.25;61.79;101750.19;2080731;28;20250;-68
2022/05/11 00:26:38;;;;;;;4.47;3.47;;;;;;;16.24;61.61;101742.28;2080376;28;20217;-68
2022/05/11 00:27:39;;;;;;;6.23;3.30;;;;;;;16.17;61.43;101732.06;2080758;28;20177;-68
2022/05/11 00:28:40;;;;;;;4.20;3.10;;;;;;;16.22;61.47;101739.91;2079948;28;20573;-68
2022/05/11 00:29:41;;;;;;;4.30;3.27;;;;;;;16.09;61.64;101729.94;2080871;28;20220;-68
2022/05/11 00:30:42;;;;;;;4.60;3.53;;;;;;;16.22;61.57;101747.50;2086012;28;20768;-68
2022/05/11 00:31:42;;;;;;;4.03;3.07;;;;;;;16.21;61.30;101749.53;2082084;28;20281;-68
2022/05/11 00:32:43;;;;;;;4.70;3.03;;;;;;;15.28;61.70;101611.25;2081473;28;20419;-68
2022/05/11 00:33:43;;;;;;;3.60;3.00;;;;;;;15.90;61.51;101714.88;2088926;28;20269;-68
2022/05/11 00:34:44;;;;;;;3.57;3.20;;;;;;;16.11;61.42;101747.84;2093517;28;20210;-68
2022/05/11 00:35:47;;;;;;;5.43;2.83;;;;;;;16.08;61.41;101745.91;2088207;28;20177;-68
2022/05/11 00:36:47;;;;;;;7.27;3.70;;;;;;;15.92;60.94;101726.41;2089368;28;20214;-68
2022/05/11 00:37:48;;;;;;;7.37;3.53;;;;;;;15.92;60.66;101728.41;2096908;28;20509;-68
2022/05/11 00:38:49;;;;;;;5.70;3.27;;;;;;;15.94;60.37;101742.75;2088786;28;20192;-69
2022/05/11 00:40:08;;;;;;;3.77;2.73;;;;;;;15.90;60.17;101745.63;2088987;28;21082;-69
2022/05/11 00:41:10;;;;;;;4.80;3.00;;;;;;;15.88;60.18;101748.06;2083120;28;20275;-69
2022/05/11 00:42:11;;;;;;;3.67;3.30;;;;;;;15.38;60.32;101664.03;2081435;28;20419;-68
2022/05/11 00:43:11;;;;;;;3.63;3.00;;;;;;;15.79;60.35;101739.53;2081482;28;20412;-68
2022/05/11 00:44:12;;;;;;;4.67;3.00;;;;;;;15.73;60.68;101743.31;2081211;28;20180;-68
2022/05/11 00:45:14;;;;;;;5.33;3.23;;;;;;;15.60;60.75;101736.88;2080548;28;20612;-68
2022/05/11 00:46:28;;;;;;;5.10;3.60;;;;;;;15.52;61.34;101747.47;2080574;28;20416;-68
2022/05/11 00:49:33;;;;;;;5.47;3.20;;;;;;;15.44;61.48;101745.31;2073267;28;20406;-68
2022/05/11 00:49:38;;;;;;;4.93;3.27;;;;;;;14.65;61.97;101638.03;2073117;28;20979;-68
2022/05/11 00:50:39;;;;;;;4.17;3.23;;;;;;;15.30;62.62;101743.63;2072973;28;20404;-68
2022/05/11 00:51:44;;;;;;;5.97;3.77;;;;;;;15.25;62.45;101743.34;2073104;28;20996;-68
2022/05/11 00:52:49;;;;;;;4.90;3.40;;;;;;;15.25;62.98;101746.94;2081031;28;20177;-68
2022/05/11 00:53:53;;;;;;;5.07;3.57;;;;;;;15.26;63.38;101748.50;2079983;28;20497;-68
2022/05/11 00:54:56;;;;;;;9.67;3.87;;;;;;;15.16;63.56;101746.00;2072437;28;20459;-68
2022/05/11 00:56:02;;;;;;;5.50;3.57;;;;;;;14.45;63.79;101656.84;2073480;28;20697;-68
2022/05/11 00:57:06;;;;;;;6.20;3.87;;;;;;;14.79;64.21;101702.63;2072011;28;20404;-68
2022/05/11 00:58:16;;;;;;;5.27;3.93;;;;;;;14.83;64.95;101722.88;2080570;28;20425;-68
2022/05/11 00:59:24;;;;;;;4.67;4.10;;;;;;;14.68;65.18;101698.50;2079542;28;20418;-68
2022/05/11 01:00:26;;;;;;;4.40;3.47;;;;;;;15.00;64.35;101738.41;2073227;28;20405;-68
2022/05/11 01:01:27;;;;;;;6.30;3.60;;;;;;;15.09;64.34;101737.78;2072716;28;20426;-69
2022/05/11 01:02:27;;;;;;;5.07;3.70;;;;;;;15.09;64.32;101737.78;2072994;28;20424;-68
2022/05/11 01:03:44;;;;;;;4.97;3.73;;;;;;;15.03;64.53;101739.53;2073304;28;20193;-68
2022/05/11 01:04:45;;;;;;;7.13;4.23;;;;;;;13.91;64.62;101563.66;2071737;28;20175;-68
2022/05/11 01:05:46;;;;;;;5.00;3.60;;;;;;;15.00;64.77;101743.19;2072673;28;20497;-68
2022/05/11 01:06:47;;;;;;;5.40;3.93;;;;;;;14.25;64.86;101623.41;2072911;28;20185;-68
2022/05/11 01:07:49;;;;;;;4.30;3.90;;;;;;;14.61;65.15;101695.91;2079294;28;20634;-68
2022/05/11 01:08:50;;;;;;;5.93;4.00;;;;;;;14.95;65.51;101743.69;2080513;28;20250;-68
2022/05/11 01:09:50;;;;;;;4.83;4.00;;;;;;;14.95;65.82;101750.09;2080406;28;20548;-68
2022/05/11 01:10:51;;;;;;;7.90;3.90;;;;;;;14.97;65.88;101744.84;2080509;28;20721;-70
2022/05/11 01:11:55;;;;;;;9.17;4.10;;;;;;;14.94;65.55;101747.72;2072959;28;20189;-71
2022/05/11 01:13:00;;;;;;;6.13;3.73;;;;;;;14.91;65.66;101745.81;2073145;28;20184;-71
2022/05/11 01:14:03;;;;;;;7.43;3.57;;;;;;;13.92;65.03;101584.72;2073340;28;20949;-71
2022/05/11 01:15:05;;;;;;;4.10;3.60;;;;;;;14.97;65.12;101744.84;2071980;28;20861;-71
2022/05/11 01:16:05;;;;;;;4.73;3.63;;;;;;;15.00;64.66;101738.41;2073215;28;20479;-71
2022/05/11 01:17:06;;;;;;;5.63;4.10;;;;;;;14.96;64.72;101736.94;2080396;28;20964;-71
2022/05/11 01:18:09;;;;;;;4.77;3.90;;;;;;;14.22;65.02;101620.72;2088589;28;20194;-71
2022/05/11 01:19:24;;;;;;;4.40;3.57;;;;;;;14.61;64.99;101699.47;2089005;28;20429;-71
2022/05/11 01:20:27;;;;;;;4.87;3.70;;;;;;;14.97;64.81;101739.25;2089084;28;20420;-71
2022/05/11 01:21:45;;;;;;;4.93;3.70;;;;;;;14.16;64.49;101628.78;2089314;28;20429;-71
2022/05/11 01:22:46;;;;;;;5.00;3.67;;;;;;;14.98;64.50;101735.28;2074990;28;20439;-71
2022/05/11 01:24:27;;;;;;;4.87;3.43;;;;;;;14.65;64.55;101693.81;2080846;28;20405;-71
2022/05/11 01:25:29;;;;;;;6.33;3.90;;;;;;;14.96;64.94;101739.72;2080057;28;20240;-71
2022/05/11 01:26:33;;;;;;;4.27;3.33;;;;;;;14.94;64.84;101740.16;2081353;28;20449;-71
2022/05/11 01:27:43;;;;;;;4.33;3.60;;;;;;;14.94;64.48;101742.94;2080926;28;20946;-71
2022/05/11 01:28:46;;;;;;;5.73;3.50;;;;;;;14.94;64.52;101739.34;2080343;28;20406;-71
2022/05/11 01:29:46;;;;;;;4.77;3.60;;;;;;;14.93;64.65;101740.56;2080254;28;20478;-71
2022/05/11 01:31:04;;;;;;;6.90;3.60;;;;;;;14.94;64.65;101742.13;2080403;28;20511;-70
2022/05/11 01:32:05;;;;;;;13.17;4.83;;;;;;;14.94;64.67;101745.72;2081038;28;20250;-71
2022/05/11 01:33:06;;;;;;;12.40;4.30;;;;;;;14.95;64.51;101740.91;2081095;28;20415;-70
2022/05/11 01:34:07;;;;;;;7.47;4.00;;;;;;;14.96;64.35;101748.09;2080911;28;20188;-71
2022/05/11 01:35:48;;;;;;;7.37;4.00;;;;;;;14.94;63.98;101742.13;2079993;28;20481;-71
2022/05/11 01:36:54;;;;;;;5.30;3.67;;;;;;;14.91;64.14;101738.22;2080948;28;20175;-71
2022/05/11 01:38:13;;;;;;;4.20;3.43;;;;;;;14.88;64.06;101741.88;2080925;28;20428;-71
2022/05/11 01:39:13;;;;;;;5.00;3.83;;;;;;;14.86;64.32;101735.94;2080318;28;20514;-71
2022/05/11 01:40:14;;;;;;;4.77;3.60;;;;;;;14.86;64.15;101737.97;2079129;28;20431;-71
2022/05/11 01:41:20;;;;;;;6.07;3.60;;;;;;;14.06;64.20;101624.25;2079641;28;20190;-69
2022/05/11 01:42:22;;;;;;;4.60;3.77;;;;;;;14.63;64.25;101708.19;2080986;28;20171;-69
2022/05/11 01:43:28;;;;;;;5.60;3.67;;;;;;;14.85;64.29;101750.34;2080905;28;20454;-68
2022/05/11 01:44:28;;;;;;;5.80;3.67;;;;;;;14.83;64.49;101736.03;2079976;28;20842;-68
2022/05/11 01:45:29;;;;;;;4.80;3.70;;;;;;;14.16;64.36;101639.13;2079530;28;20436;-68
2022/05/11 01:46:31;;;;;;;4.60;3.90;;;;;;;14.76;64.42;101755.75;2080199;28;20264;-68
2022/05/11 01:47:31;;;;;;;6.20;3.67;;;;;;;14.83;64.30;101752.78;2080375;28;20219;-68
2022/05/11 01:48:32;;;;;;;5.27;4.10;;;;;;;14.82;64.38;101743.63;2080812;28;20417;-68
2022/05/11 01:49:32;;;;;;;4.67;3.63;;;;;;;14.84;64.42;101752.34;2080226;28;20207;-68
2022/05/11 01:50:33;;;;;;;4.93;4.07;;;;;;;14.06;64.21;101629.81;2087427;28;20312;-68
2022/05/11 01:51:33;;;;;;;5.73;3.70;;;;;;;14.80;64.45;101748.84;2079945;28;20178;-68
2022/05/11 01:52:34;;;;;;;4.30;3.60;;;;;;;14.80;64.36;101748.06;2080199;28;20300;-68
2022/05/11 01:53:34;;;;;;;4.00;3.60;;;;;;;14.78;64.10;101754.09;2080260;28;20244;-68
2022/05/11 01:54:36;;;;;;;8.57;4.03;;;;;;;14.75;64.17;101752.16;2079694;28;20294;-68
2022/05/11 01:55:36;;;;;;;6.17;3.50;;;;;;;13.87;63.94;101621.47;2079657;28;20203;-68
2022/05/11 01:56:37;;;;;;;6.63;4.00;;;;;;;14.75;63.80;101762.53;2080212;28;20420;-68
2022/05/11 01:57:39;;;;;;;6.30;3.50;;;;;;;14.73;63.71;101765.75;2088302;28;20210;-68
2022/05/11 01:58:40;;;;;;;5.50;3.60;;;;;;;14.71;63.35;101768.19;2088307;28;20175;-68
2022/05/11 01:59:40;;;;;;;3.97;3.00;;;;;;;14.68;63.23;101766.28;2087775;28;21016;-68
2022/05/11 02:00:44;;;;;;;4.30;3.50;;;;;;;14.69;62.92;101764.25;2087791;28;20180;-68
2022/05/11 02:01:45;;;;;;;10.53;4.13;;;;;;;14.66;63.06;101762.34;2080007;28;20181;-68
2022/05/11 02:02:45;;;;;;;15.07;5.17;;;;;;;14.65;62.74;101767.13;2080288;28;20449;-68
2022/05/11 02:03:46;;;;;;;13.97;5.40;;;;;;;14.64;62.84;101773.13;2080170;28;20430;-68
2022/05/11 02:08:44;;;;;;;10.27;4.63;;;;;;;14.47;62.53;101760.38;2080837;28;20402;-68
2022/05/11 02:09:45;;;;;;;5.80;4.20;;;;;;;14.44;62.86;101756.44;2080724;28;20470;-68
2022/05/11 02:10:46;;;;;;;10.97;4.60;;;;;;;14.29;62.68;101738.44;2079607;28;20425;-68
2022/05/11 02:11:46;;;;;;;12.07;4.80;;;;;;;14.39;62.90;101761.75;2080394;28;20637;-68
2022/05/11 02:12:47;;;;;;;9.73;4.70;;;;;;;14.35;62.94;101763.84;2080439;28;20574;-68
2022/05/11 02:13:48;;;;;;;5.83;3.60;;;;;;;14.21;62.67;101767.72;2080869;28;20644;-68
2022/05/11 02:14:48;;;;;;;3.73;3.33;;;;;;;14.14;62.00;101758.66;2080189;28;20523;-68
2022/05/11 02:15:50;;;;;;;6.03;3.40;;;;;;;14.08;62.26;101769.53;2080130;28;20215;-68
2022/05/11 02:16:50;;;;;;;4.87;3.50;;;;;;;13.97;62.35;101760.59;2088140;28;20190;-68
2022/05/11 02:17:51;;;;;;;10.47;4.57;;;;;;;13.90;62.74;101760.75;2090544;28;20428;-68
2022/05/11 02:18:53;;;;;;;21.43;5.10;;;;;;;13.90;63.08;101765.50;2088957;28;20194;-68
2022/05/11 02:19:54;;;;;;;13.57;5.17;;;;;;;13.89;62.98;101766.72;2088780;28;20420;-68
2022/05/11 02:20:54;;;;;;;17.27;5.10;;;;;;;13.90;63.04;101757.94;2087857;28;20432;-68
2022/05/11 02:21:55;;;;;;;25.60;5.97;;;;;;;13.75;63.05;101751.06;2086497;28;20851;-68
2022/05/11 02:22:55;;;;;;;21.70;6.10;;;;;;;13.89;63.26;101759.16;2079034;28;20184;-68
2022/05/11 02:23:56;;;;;;;28.40;6.23;;;;;;;13.92;63.26;101763.88;2080002;28;20264;-68
2022/05/11 02:24:56;;;;;;;18.23;6.20;;;;;;;13.90;63.18;101752.38;2071697;28;20180;-68
2022/05/11 02:25:57;;;;;;;14.03;5.63;;;;;;;13.92;63.33;101760.28;2072393;28;20186;-68
2022/05/11 02:27:01;;;;;;;10.60;4.33;;;;;;;13.51;63.08;101699.41;2079940;28;20236;-68
2022/05/11 02:28:02;;;;;;;9.67;4.30;;;;;;;13.94;63.07;101747.50;2079440;28;20186;-68
2022/05/11 02:29:02;;;;;;;7.67;4.53;;;;;;;13.87;62.93;101735.72;2072688;28;20423;-68
2022/05/11 02:30:06;;;;;;;5.73;4.00;;;;;;;13.92;63.11;101751.94;2072528;28;20235;-68
2022/05/11 02:31:06;;;;;;;6.77;4.57;;;;;;;13.91;63.17;101753.16;2071563;28;20177;-68
2022/05/11 02:32:07;;;;;;;5.93;4.37;;;;;;;13.59;63.34;101708.41;2072264;28;20513;-68
2022/05/11 02:33:08;;;;;;;6.70;4.40;;;;;;;12.64;63.14;101589.63;2072037;28;20243;-67
2022/05/11 02:35:12;;;;;;;6.30;4.20;;;;;;;13.66;63.03;101758.41;2072123;28;20425;-67
2022/05/11 02:35:29;;;;;;;8.83;5.10;;;;;;;13.45;63.16;101736.50;2071504;28;20190;-67
2022/05/11 02:36:29;;;;;;;12.17;5.50;;;;;;;13.42;63.43;101759.66;2072684;28;20403;-67
2022/05/11 02:37:30;;;;;;;8.20;4.87;;;;;;;13.15;63.81;101711.59;2072564;28;20174;-68
2022/05/11 02:38:34;;;;;;;7.60;4.83;;;;;;;13.04;63.91;101706.22;2072475;28;20204;-68
2022/05/11 02:39:35;;;;;;;7.73;4.80;;;;;;;13.29;64.27;101739.19;2072493;28;20230;-68
2022/05/11 02:40:38;;;;;;;12.43;5.17;;;;;;;13.35;64.45;101751.41;2071965;28;20429;-68
2022/05/11 02:41:38;;;;;;;9.43;5.17;;;;;;;13.34;64.43;101752.63;2071292;28;20616;-68
2022/05/11 02:42:39;;;;;;;7.43;5.00;;;;;;;13.36;64.73;101747.41;2071633;28;20976;-68
2022/05/11 02:43:42;;;;;;;11.07;4.63;;;;;;;13.32;64.75;101755.81;2072070;28;20188;-68
2022/05/11 02:44:42;;;;;;;7.53;4.87;;;;;;;12.22;64.67;101593.91;2071508;28;20178;-68
2022/05/11 02:45:44;;;;;;;9.07;4.70;;;;;;;13.28;64.79;101751.53;2072044;28;20511;-68
2022/05/11 02:46:45;;;;;;;7.03;4.90;;;;;;;13.22;64.96;101753.25;2072476;28;20266;-68
2022/05/11 02:47:48;;;;;;;6.10;4.73;;;;;;;13.25;65.03;101752.38;2072511;28;20436;-68
2022/05/11 02:48:48;;;;;;;5.90;4.17;;;;;;;13.28;64.85;101751.53;2072465;28;20239;-68
2022/05/11 02:49:49;;;;;;;6.40;4.47;;;;;;;13.23;64.80;101749.25;2072359;28;20522;-68
2022/05/11 02:50:56;;;;;;;7.83;4.47;;;;;;;13.10;64.85;101737.13;2071833;28;20195;-68
2022/05/11 02:51:58;;;;;;;6.50;4.27;;;;;;;13.23;64.85;101752.78;2072228;28;20213;-68
2022/05/11 02:52:58;;;;;;;6.67;4.73;;;;;;;13.13;64.82;101752.97;2072189;28;20866;-68
2022/05/11 02:53:59;;;;;;;8.97;4.93;;;;;;;12.94;65.17;101728.59;2072514;28;20417;-68
2022/05/11 02:55:00;;;;;;;12.77;5.90;;;;;;;13.06;65.53;101753.09;2070679;28;20182;-68
2022/05/11 02:56:00;;;;;;;16.13;6.00;;;;;;;13.04;65.68;101753.53;2072419;28;20187;-68
2022/05/11 02:57:01;;;;;;;10.87;5.43;;;;;;;11.81;65.46;101581.38;2072456;28;20182;-68
2022/05/11 02:58:02;;;;;;;8.53;5.17;;;;;;;12.98;65.55;101755.22;2071783;28;20767;-68
2022/05/11 02:59:03;;;;;;;12.53;5.33;;;;;;;13.02;65.51;101753.13;2063763;28;20179;-68
2022/05/11 03:00:06;;;;;;;7.57;4.90;;;;;;;13.07;65.50;101751.91;2071484;28;20417;-68
2022/05/11 03:01:07;;;;;;;8.93;5.33;;;;;;;13.02;65.70;101755.91;2071881;28;20193;-68
2022/05/11 03:02:07;;;;;;;9.43;5.20;;;;;;;13.01;65.63;101750.81;2071563;28;20425;-68
2022/05/11 03:03:07;;;;;;;9.13;4.97;;;;;;;12.94;65.84;101750.88;2071234;28;20189;-68
2022/05/11 03:04:08;;;;;;;7.60;4.87;;;;;;;12.91;65.95;101751.72;2072242;28;20202;-68
2022/05/11 03:05:11;;;;;;;9.43;5.13;;;;;;;12.93;65.95;101758.44;2070898;28;20236;-68
2022/05/11 03:06:12;;;;;;;10.47;5.00;;;;;;;12.94;66.20;101759.22;2072039;28;20177;-68
2022/05/11 03:07:12;;;;;;;11.67;4.80;;;;;;;12.95;66.32;101752.44;2072436;28;20452;-68
2022/05/11 03:08:13;;;;;;;8.03;4.97;;;;;;;12.95;66.58;101749.66;2071615;28;20182;-68
2022/05/11 03:09:17;;;;;;;6.83;5.10;;;;;;;13.02;66.61;101760.72;2063401;28;20183;-68
2022/05/11 03:10:18;;;;;;;9.80;5.10;;;;;;;13.05;66.59;101757.06;2071623;28;20178;-68
2022/05/11 03:11:18;;;;;;;8.83;5.10;;;;;;;12.86;66.54;101732.72;2072028;28;20423;-68
2022/05/11 03:12:22;;;;;;;9.77;5.50;;;;;;;12.99;66.60;101762.34;2071613;28;20255;-68
2022/05/11 03:13:25;;;;;;;7.70;5.03;;;;;;;13.00;66.67;101771.47;2063344;28;20201;-68
2022/05/11 03:14:26;;;;;;;7.73;4.90;;;;;;;12.98;66.90;101765.56;2071791;28;20503;-68
2022/05/11 03:15:28;;;;;;;9.73;5.43;;;;;;;12.89;66.79;101754.13;2070702;28;20495;-68
2022/05/11 03:16:28;;;;;;;13.93;5.13;;;;;;;12.82;66.84;101735.53;2070983;28;20197;-68
2022/05/11 03:17:29;;;;;;;8.43;4.87;;;;;;;13.03;66.68;101774.22;2079887;28;20527;-68
2022/05/11 03:18:29;;;;;;;8.53;4.70;;;;;;;13.07;66.44;101765.81;2094914;28;20185;-68
2022/05/11 03:19:30;;;;;;;8.93;4.93;;;;;;;13.10;66.51;101762.16;2088037;28;20244;-68
2022/05/11 03:20:30;;;;;;;7.73;4.50;;;;;;;13.12;66.52;101766.09;2087810;28;20238;-68
2022/05/11 03:21:32;;;;;;;8.30;4.70;;;;;;;13.15;66.59;101761.69;2088410;28;20542;-68
2022/05/11 03:22:33;;;;;;;8.40;4.63;;;;;;;13.15;66.42;101768.06;2081035;28;20185;-68
2022/05/11 03:23:33;;;;;;;8.50;4.83;;;;;;;13.16;66.32;101766.84;2079991;28;20481;-68
2022/05/11 03:24:34;;;;;;;9.07;4.50;;;;;;;13.17;66.59;101765.63;2079626;28;20455;-68
2022/05/11 03:25:34;;;;;;;10.20;4.93;;;;;;;12.92;66.33;101726.25;2079993;28;20231;-68
2022/05/11 03:26:35;;;;;;;9.67;4.80;;;;;;;12.96;66.25;101729.03;2079827;28;20678;-68
2022/05/11 03:27:36;;;;;;;10.20;5.13;;;;;;;13.14;66.37;101760.13;2087867;28;20696;-68
2022/05/11 03:28:38;;;;;;;9.37;5.00;;;;;;;12.77;66.16;101693.53;2088913;28;20247;-68
2022/05/11 03:29:38;;;;;;;7.33;5.53;;;;;;;13.20;66.16;101764.00;2081855;28;20205;-68
2022/05/11 03:30:39;;;;;;;8.27;5.30;;;;;;;13.23;66.07;101775.06;2080564;28;20428;-68
2022/05/11 03:31:40;;;;;;;7.23;5.43;;;;;;;13.16;66.11;101750.13;2081412;28;20265;-68
2022/05/11 03:35:19;;;;;;;6.50;5.57;;;;;;;12.96;66.11;101710.31;2083830;28;20429;-68
2022/05/11 03:36:20;;;;;;;7.97;6.00;;;;;;;13.21;66.05;101743.31;2081768;28;20425;-68
2022/05/11 03:37:22;;;;;;;9.10;6.93;;;;;;;13.24;66.33;101751.59;2081144;28;20265;-68
2022/05/11 03:38:22;;;;;;;14.07;6.20;;;;;;;13.39;66.06;101761.28;2081179;28;20913;-68
2022/05/11 03:39:23;;;;;;;10.30;5.33;;;;;;;13.36;65.94;101767.69;2073017;28;20456;-68
2022/05/11 03:40:23;;;;;;;11.40;5.10;;;;;;;13.36;65.92;101766.91;2080924;28;20203;-68
2022/05/11 03:41:24;;;;;;;6.07;5.10;;;;;;;12.89;65.70;101690.94;2080911;28;20752;-68
2022/05/11 03:42:28;;;;;;;7.23;4.70;;;;;;;13.30;65.27;101772.19;2081222;28;20210;-68
2022/05/11 03:43:29;;;;;;;7.63;5.10;;;;;;;13.23;65.43;101777.06;2081945;28;20178;-68
2022/05/11 03:44:30;;;;;;;5.67;4.47;;;;;;;13.19;65.42;101771.56;2080386;28;20498;-68
2022/05/11 03:45:30;;;;;;;6.40;5.00;;;;;;;12.59;65.72;101696.56;2080281;28;20420;-68
2022/05/11 03:46:31;;;;;;;6.23;4.40;;;;;;;13.20;65.83;101775.91;2081924;28;20607;-68
2022/05/11 03:47:31;;;;;;;5.63;4.77;;;;;;;13.13;65.84;101780.81;2081732;28;20661;-68
2022/05/11 03:48:32;;;;;;;10.37;5.10;;;;;;;13.07;66.10;101783.28;2081164;28;20179;-68
2022/05/11 03:49:33;;;;;;;6.97;5.00;;;;;;;12.99;66.06;101772.69;2081695;28;20229;-68
2022/05/11 03:50:33;;;;;;;7.93;4.70;;;;;;;12.02;66.22;101620.78;2081375;28;20221;-68
2022/05/11 03:51:34;;;;;;;7.30;5.07;;;;;;;12.35;66.44;101663.59;2081631;28;20930;-67
2022/05/11 03:52:35;;;;;;;7.17;4.87;;;;;;;12.78;66.57;101739.59;2081828;28;20178;-67
2022/05/11 03:53:37;;;;;;;5.57;4.37;;;;;;;13.12;66.57;101788.38;2081801;28;20181;-68
2022/05/11 03:54:37;;;;;;;5.67;4.50;;;;;;;13.13;66.86;101794.72;2081142;28;20455;-68
2022/05/11 03:55:39;;;;;;;6.07;4.50;;;;;;;13.16;66.75;101791.88;2080701;28;20416;-68
2022/05/11 03:56:40;;;;;;;8.10;4.43;;;;;;;13.20;66.87;101795.41;2081679;28;20182;-68
2022/05/11 03:57:41;;;;;;;10.33;4.67;;;;;;;12.79;66.81;101724.47;2081175;28;20433;-68
2022/05/11 03:58:41;;;;;;;6.53;4.80;;;;;;;13.27;66.86;101797.28;2072152;28;20480;-68
2022/05/11 03:59:42;;;;;;;7.63;4.83;;;;;;;13.29;66.94;101800.44;2081115;28;20426;-68
2022/05/11 04:00:42;;;;;;;7.97;4.80;;;;;;;12.56;67.04;101702.97;2081044;28;20188;-67
2022/05/11 04:01:43;;;;;;;7.67;5.07;;;;;;;13.32;67.01;101803.16;2079229;28;20199;-68
2022/05/11 04:02:43;;;;;;;7.30;5.20;;;;;;;13.31;67.06;101800.78;2081601;28;20191;-68
2022/05/11 04:03:46;;;;;;;7.23;4.73;;;;;;;13.37;67.15;101804.69;2069694;28;20224;-68
2022/05/11 04:04:46;;;;;;;6.40;4.37;;;;;;;13.40;67.11;101804.63;2056573;28;20576;-68
2022/05/11 04:05:46;;;;;;;8.07;4.77;;;;;;;13.45;67.25;101808.91;2071978;28;20524;-68
2022/05/11 04:06:47;;;;;;;6.20;4.43;;;;;;;13.49;67.29;101807.66;2073499;28;20196;-68
2022/05/11 04:07:48;;;;;;;7.93;5.23;;;;;;;12.54;66.90;101663.69;2073390;28;20193;-68
2022/05/11 04:08:48;;;;;;;10.17;5.50;;;;;;;13.49;67.05;101790.94;2072950;28;20182;-67
2022/05/11 04:09:49;;;;;;;7.90;4.83;;;;;;;13.55;66.93;101797.59;2073229;28;20200;-67
2022/05/11 04:10:49;;;;;;;6.67;5.57;;;;;;;13.66;66.92;101811.34;2071931;28;20181;-68
2022/05/11 04:11:50;;;;;;;9.33;5.20;;;;;;;13.70;66.87;101809.28;2072839;28;20199;-68
2022/05/11 04:12:50;;;;;;;10.73;6.77;;;;;;;13.72;66.87;101807.63;2073420;28;20184;-68
2022/05/11 04:13:52;;;;;;;13.17;7.83;;;;;;;13.70;66.48;101810.06;2073429;28;20187;-68
2022/05/11 04:14:52;;;;;;;9.83;6.67;;;;;;;13.18;66.55;101719.09;2072842;28;20184;-68
2022/05/11 04:15:53;;;;;;;10.83;6.57;;;;;;;13.83;66.60;101818.59;2072830;28;20500;-68
2022/05/11 04:16:56;;;;;;;19.30;7.07;;;;;;;13.78;66.62;101805.16;2080949;28;20223;-68
2022/05/11 04:17:58;;;;;;;15.53;7.47;;;;;;;13.87;66.55;101814.53;2078785;28;20274;-68
2022/05/11 04:18:59;;;;;;;17.97;7.77;;;;;;;13.82;66.47;101801.09;2080994;28;20431;-68
2022/05/11 04:20:00;;;;;;;10.27;6.60;;;;;;;13.97;66.38;101818.31;2088528;28;20923;-68
2022/05/11 04:21:01;;;;;;;10.77;6.60;;;;;;;14.02;66.63;101824.19;2088991;28;20849;-68
2022/05/11 04:22:01;;;;;;;9.33;6.27;;;;;;;13.98;66.55;101815.13;2086496;28;20661;-68
2022/05/11 04:23:02;;;;;;;11.30;6.40;;;;;;;14.08;66.67;101825.28;2080654;28;20217;-68
2022/05/11 04:24:02;;;;;;;7.93;5.53;;;;;;;14.12;66.82;101825.19;2072603;28;20266;-68
2022/05/11 04:25:03;;;;;;;9.43;5.63;;;;;;;13.77;66.63;101770.13;2071659;28;20176;-68
2022/05/11 04:26:04;;;;;;;7.83;5.73;;;;;;;14.15;66.96;101829.94;2073091;28;20543;-68
2022/05/11 04:27:05;;;;;;;6.80;5.33;;;;;;;14.15;66.77;101830.69;2073118;28;20183;-68
2022/05/11 04:28:11;;;;;;;9.37;5.83;;;;;;;14.14;67.00;101840.28;2073299;28;20229;-68
2022/05/11 04:29:11;;;;;;;8.03;6.07;;;;;;;14.15;67.17;101835.50;2073239;28;20828;-67
2022/05/11 04:30:17;;;;;;;6.97;6.17;;;;;;;14.13;67.10;101838.72;2072275;28;20464;-67
2022/05/11 04:31:18;;;;;;;6.63;5.90;;;;;;;14.10;67.30;101842.34;2072789;28;20171;-68
2022/05/11 04:32:18;;;;;;;8.37;5.80;;;;;;;14.12;67.71;101839.94;2080697;28;20432;-68
2022/05/11 04:33:19;;;;;;;8.90;6.57;;;;;;;13.38;67.83;101726.28;2080707;28;20177;-68
2022/05/11 04:34:19;;;;;;;9.57;6.13;;;;;;;13.69;67.80;101771.50;2073044;28;20182;-68
2022/05/11 04:35:20;;;;;;;7.63;5.87;;;;;;;14.14;68.08;101845.84;2072252;28;20182;-68
2022/05/11 04:36:21;;;;;;;10.23;6.20;;;;;;;14.16;67.92;101842.66;2071603;28;20223;-68
2022/05/11 04:37:21;;;;;;;12.33;6.83;;;;;;;14.16;68.09;101837.88;2076030;28;20679;-68
2022/05/11 04:38:22;;;;;;;12.23;7.40;;;;;;;13.37;67.81;101718.38;2079615;28;20477;-68
2022/05/11 04:39:23;;;;;;;11.57;7.20;;;;;;;14.09;68.07;101842.78;2080636;28;20194;-68
2022/05/11 04:40:24;;;;;;;10.43;6.77;;;;;;;14.09;68.17;101835.19;2079264;28;20332;-68
2022/05/11 04:41:25;;;;;;;8.50;6.80;;;;;;;14.07;68.50;101837.66;2079144;28;20243;-68
2022/05/11 04:42:25;;;;;;;9.97;7.13;;;;;;;14.08;68.67;101835.66;2080856;28;20479;-68
2022/05/11 04:43:26;;;;;;;9.77;7.37;;;;;;;14.08;68.61;101841.22;2076554;28;20263;-69
2022/05/11 04:44:28;;;;;;;8.17;6.17;;;;;;;14.06;68.89;101838.06;2077343;28;20189;-69
2022/05/11 04:45:28;;;;;;;9.67;6.70;;;;;;;13.97;68.84;101826.69;2078645;28;20623;-68
2022/05/11 04:46:33;;;;;;;8.17;6.60;;;;;;;14.08;69.01;101847.56;2082711;28;20878;-68
2022/05/11 04:47:33;;;;;;;8.40;7.20;;;;;;;14.11;69.24;101874.59;2076862;28;20523;-68
2022/05/11 04:48:34;;;;;;;8.13;6.93;;;;;;;14.12;69.45;101850.28;2067816;28;21106;-68
2022/05/11 04:49:34;;;;;;;8.80;6.97;;;;;;;13.55;69.48;101752.25;2064440;28;20231;-68
2022/05/11 04:50:42;;;;;;;8.60;6.57;;;;;;;14.20;69.46;101851.78;2067877;28;20197;-68
2022/05/11 04:51:51;;;;;;;12.00;7.10;;;;;;;13.40;69.58;101728.66;2070594;28;20325;-68
2022/05/11 04:52:52;;;;;;;10.63;7.50;;;;;;;13.28;69.51;101687.50;2071151;28;20425;-68
2022/05/11 04:53:53;;;;;;;10.10;7.27;;;;;;;14.32;69.35;101851.91;2073274;28;20432;-69
2022/05/11 04:54:53;;;;;;;9.57;7.20;;;;;;;13.40;69.16;101687.69;2079853;28;20999;-69
2022/05/11 04:55:55;;;;;;;8.60;7.53;;;;;;;14.42;69.27;101838.97;2078134;28;20187;-69